Time;durP1;ratioP1;P1;durP2;ratioP2;P2;SDS_P1;SDS_P2;PMS_P1;PMS_P2;Temp;Humidity;BMP_temperature;BMP_pressure;BME280_temperature;BME280_humidity;BME280_pressure;Samples;Min_cycle;Max_cycle;Signal;HPM_P1;HPM_P2
2022/05/29 00:00:48;;;;;;;3.35;0.30;;;7.60;99.90;;;;;;5054435;28;20036;-72
2022/05/29 00:03:14;;;;;;;1.77;0.65;;;7.50;99.90;;;;;;5053024;28;20025;-72
2022/05/29 00:05:40;;;;;;;4.82;0.45;;;7.50;99.90;;;;;;5052997;28;20028;-72
2022/05/29 00:08:09;;;;;;;4.53;0.35;;;7.40;99.90;;;;;;5054605;28;20021;-72
2022/05/29 00:10:36;;;;;;;;;;;7.40;99.90;;;;;;5055043;28;20067;-72
2022/05/29 00:13:01;;;;;;;1.88;0.20;;;7.40;99.90;;;;;;5054130;28;19908;-72
2022/05/29 00:15:27;;;;;;;3.45;0.10;;;7.40;99.90;;;;;;5054291;28;20027;-72
2022/05/29 00:17:52;;;;;;;4.68;0.10;;;7.40;99.90;;;;;;5054621;28;20487;-72
2022/05/29 00:20:18;;;;;;;5.20;0.20;;;7.40;99.90;;;;;;5055043;28;20504;-72
2022/05/29 00:22:44;;;;;;;3.08;0.25;;;7.30;99.90;;;;;;5053198;28;20029;-72
2022/05/29 00:25:11;;;;;;;3.30;0.15;;;7.30;99.90;;;;;;5054062;28;20048;-72
2022/05/29 00:27:37;;;;;;;3.10;0.82;;;7.30;99.90;;;;;;5053828;28;20029;-72
2022/05/29 00:30:06;;;;;;;13.75;1.75;;;7.40;99.90;;;;;;5053176;28;20029;-72
2022/05/29 00:32:33;;;;;;;9.68;1.00;;;7.40;99.90;;;;;;5053836;28;20025;-72
2022/05/29 00:34:58;;;;;;;8.85;0.68;;;7.40;99.90;;;;;;5052924;28;20021;-72
2022/05/29 00:37:24;;;;;;;1.88;0.40;;;7.40;99.90;;;;;;5053954;28;20044;-72
2022/05/29 00:39:50;;;;;;;2.30;0.40;;;7.40;99.90;;;;;;5052849;28;20044;-72
2022/05/29 00:42:21;;;;;;;2.55;0.43;;;7.50;99.90;;;;;;5054045;28;20017;-72
2022/05/29 00:44:47;;;;;;;6.50;0.98;;;7.40;99.90;;;;;;5053871;28;20027;-72
2022/05/29 00:47:18;;;;;;;6.57;0.10;;;7.40;99.90;;;;;;5053934;28;20017;-72
2022/05/29 00:49:46;;;;;;;2.58;0.30;;;7.40;99.90;;;;;;5054717;28;20025;-72
2022/05/29 00:52:24;;;;;;;2.25;0.20;;;7.40;99.90;;;;;;5054235;28;20033;-71
2022/05/29 00:54:55;;;;;;;3.08;0.15;;;7.40;99.90;;;;;;5054050;28;20062;-71
2022/05/29 00:57:35;;;;;;;5.82;0.35;;;7.40;99.90;;;;;;5053796;28;20503;-72
2022/05/29 01:00:18;;;;;;;25.80;0.85;;;7.40;99.90;;;;;;5057425;28;20033;-72
2022/05/29 01:02:45;;;;;;;6.00;1.35;;;7.30;99.90;;;;;;5056909;28;20027;-72
2022/05/29 01:05:14;;;;;;;4.32;0.35;;;7.40;99.90;;;;;;5057866;28;20037;-72
2022/05/29 01:07:43;;;;;;;3.42;0.35;;;7.30;99.90;;;;;;5056614;28;20025;-72
2022/05/29 01:10:09;;;;;;;1.55;0.28;;;7.30;99.90;;;;;;5057562;28;20104;-72
2022/05/29 01:13:05;;;;;;;6.25;0.50;;;7.30;99.90;;;;;;5056100;28;20059;-72
2022/05/29 01:15:42;;;;;;;3.35;0.47;;;7.30;99.90;;;;;;5056159;28;20029;-72
2022/05/29 01:18:23;;;;;;;1.45;0.10;;;7.30;99.90;;;;;;5056474;28;20021;-72
2022/05/29 01:21:00;;;;;;;5.28;0.40;;;7.30;99.90;;;;;;5057595;28;20028;-72
2022/05/29 01:23:37;;;;;;;6.22;0.80;;;7.30;99.90;;;;;;5057719;28;20360;-72
2022/05/29 01:26:28;;;;;;;4.22;0.10;;;7.40;99.90;;;;;;5056315;28;20029;-72
2022/05/29 01:29:18;;;;;;;3.25;0.25;;;7.40;99.90;;;;;;5057347;28;20045;-72
2022/05/29 01:31:53;;;;;;;6.80;0.13;;;7.40;99.90;;;;;;5054096;28;20029;-72
2022/05/29 01:34:38;;;;;;;4.72;0.70;;;7.50;99.90;;;;;;5057052;28;20055;-71
2022/05/29 01:37:24;;;;;;;4.47;0.20;;;7.50;99.90;;;;;;5057603;28;20383;-71
2022/05/29 01:40:06;;;;;;;9.23;0.45;;;7.60;99.90;;;;;;5055882;28;20027;-72
2022/05/29 01:42:43;;;;;;;7.13;0.85;;;7.70;99.90;;;;;;5057339;28;20080;-72
2022/05/29 01:45:53;;;;;;;3.13;0.30;;;7.70;99.90;;;;;;5055791;28;20079;-71
2022/05/29 01:48:22;;;;;;;5.47;0.40;;;7.70;99.90;;;;;;5055704;28;20090;-71
2022/05/29 01:50:55;;;;;;;3.72;0.68;;;7.80;99.90;;;;;;5056973;28;20417;-71
2022/05/29 01:53:30;;;;;;;7.38;0.45;;;7.90;99.90;;;;;;5057261;28;20024;-72
2022/05/29 01:56:01;;;;;;;5.78;0.60;;;8.00;99.90;;;;;;5055462;28;20112;-71
2022/05/29 01:58:37;;;;;;;5.15;0.57;;;8.10;99.90;;;;;;5056803;28;20503;-72
2022/05/29 02:01:08;;;;;;;6.20;0.15;;;8.10;99.90;;;;;;5056485;28;20036;-71
2022/05/29 02:03:38;;;;;;;8.73;0.35;;;8.20;99.90;;;;;;5056420;28;20024;-72
2022/05/29 02:06:10;;;;;;;3.60;0.20;;;8.20;99.90;;;;;;5056585;28;20025;-73
2022/05/29 02:08:36;;;;;;;5.63;0.15;;;8.30;99.90;;;;;;5055057;28;20021;-72
2022/05/29 02:11:09;;;;;;;3.35;0.20;;;8.30;99.90;;;;;;5055816;28;20032;-72
2022/05/29 02:13:51;;;;;;;0.55;0.08;;;8.30;99.90;;;;;;5056220;28;20021;-72
2022/05/29 02:16:28;;;;;;;6.13;0.10;;;8.40;99.90;;;;;;5055252;28;20459;-72
2022/05/29 02:19:13;;;;;;;6.10;0.63;;;8.40;99.90;;;;;;5056137;28;20059;-72
2022/05/29 02:21:52;;;;;;;4.53;0.52;;;8.40;99.90;;;;;;5054955;28;20064;-72
2022/05/29 02:24:22;;;;;;;3.00;0.10;;;8.40;99.90;;;;;;5054809;28;20025;-72
2022/05/29 02:26:54;;;;;;;6.55;0.32;;;8.40;99.90;;;;;;5056664;28;20503;-72
2022/05/29 02:29:19;;;;;;;5.25;0.77;;;8.50;99.90;;;;;;5056098;28;20040;-72
2022/05/29 02:31:57;;;;;;;2.28;0.10;;;8.50;99.90;;;;;;5054779;28;20172;-72
2022/05/29 02:34:43;;;;;;;2.72;0.10;;;8.60;99.90;;;;;;5055901;28;20033;-72
2022/05/29 02:37:23;;;;;;;4.53;0.45;;;8.60;99.90;;;;;;5055955;28;20031;-72
2022/05/29 02:40:27;;;;;;;2.83;0.20;;;8.70;99.90;;;;;;5054687;28;20017;-72
2022/05/29 02:43:30;;;;;;;4.43;0.68;;;8.80;99.90;;;;;;5055673;28;20110;-72
2022/05/29 02:46:16;;;;;;;8.40;0.63;;;8.80;99.90;;;;;;5055682;28;20037;-73
2022/05/29 02:48:50;;;;;;;5.78;0.25;;;8.90;99.90;;;;;;5054460;28;20032;-72
2022/05/29 02:51:29;;;;;;;3.88;0.10;;;8.90;99.90;;;;;;5055932;28;20074;-72
2022/05/29 02:53:57;;;;;;;5.60;0.43;;;8.90;99.90;;;;;;5056238;28;20021;-72
2022/05/29 02:56:23;;;;;;;2.88;0.10;;;9.00;99.90;;;;;;5055615;28;20479;-72
2022/05/29 02:58:54;;;;;;;5.07;0.50;;;9.00;99.90;;;;;;5055582;28;20048;-72
2022/05/29 03:01:29;;;;;;;4.57;0.13;;;9.10;99.90;;;;;;5053769;28;20033;-72
2022/05/29 03:04:19;;;;;;;4.97;0.50;;;9.10;99.90;;;;;;5055091;28;20035;-72
2022/05/29 03:06:48;;;;;;;4.97;0.35;;;9.20;99.90;;;;;;5055438;28;20055;-72
2022/05/29 03:09:41;;;;;;;3.60;0.50;;;9.30;99.90;;;;;;5055642;28;20476;-72
2022/05/29 03:12:22;;;;;;;6.07;0.57;;;9.30;99.90;;;;;;5056521;28;20054;-72
2022/05/29 03:15:08;;;;;;;5.50;0.43;;;9.30;99.90;;;;;;5055038;28;20036;-73
2022/05/29 03:17:42;;;;;;;4.93;0.10;;;9.30;99.90;;;;;;5055106;28;20396;-73
2022/05/29 03:20:34;;;;;;;4.22;0.43;;;9.30;99.90;;;;;;5055278;28;20537;-73
2022/05/29 03:23:13;;;;;;;5.05;0.15;;;9.40;99.90;;;;;;5054258;28;20121;-72
2022/05/29 03:25:44;;;;;;;3.38;0.40;;;9.40;99.90;;;;;;5053282;28;20025;-73
2022/05/29 03:28:30;;;;;;;7.03;0.25;;;9.40;99.90;;;;;;5054789;28;20082;-73
2022/05/29 03:30:59;;;;;;;4.50;0.57;;;9.40;99.90;;;;;;5054753;28;20020;-73
2022/05/29 03:33:25;;;;;;;9.93;0.20;;;9.40;99.90;;;;;;5053259;28;20079;-73
2022/05/29 03:35:54;;;;;;;3.50;0.40;;;9.40;99.90;;;;;;5054268;28;20070;-73
2022/05/29 03:38:20;;;;;;;;;;;9.40;99.90;;;;;;5054922;28;20475;-73
2022/05/29 03:40:47;;;;;;;7.78;0.52;;;9.40;99.90;;;;;;5054058;28;19905;-73
2022/05/29 03:43:12;;;;;;;9.20;0.70;;;9.40;99.90;;;;;;5054369;28;20032;-73
2022/05/29 03:45:38;;;;;;;2.45;0.30;;;9.40;99.90;;;;;;5053993;28;20495;-73
2022/05/29 03:48:05;;;;;;;6.35;0.10;;;9.40;99.90;;;;;;5054172;28;20500;-73
2022/05/29 03:50:31;;;;;;;4.35;0.65;;;9.40;99.90;;;;;;5054134;28;20017;-73
2022/05/29 03:53:00;;;;;;;1.85;0.73;;;9.40;99.90;;;;;;5054094;28;20425;-73
2022/05/29 03:55:25;;;;;;;;;;;9.40;99.90;;;;;;5053138;28;20032;-73
2022/05/29 03:57:52;;;;;;;5.15;0.10;;;9.50;99.90;;;;;;5054184;28;19908;-74
2022/05/29 04:00:20;;;;;;;3.63;0.10;;;9.50;99.90;;;;;;5053997;28;20057;-74
2022/05/29 04:02:46;;;;;;;5.13;0.57;;;9.50;99.90;;;;;;5053898;28;20452;-73
2022/05/29 04:05:19;;;;;;;2.28;0.22;;;9.50;99.90;;;;;;5053668;28;20483;-74
2022/05/29 04:13:15;;;;;;;3.08;0.40;;;9.60;99.90;;;;;;5054076;28;20040;-72
2022/05/29 04:15:46;;;;;;;7.25;0.47;;;9.60;99.90;;;;;;5053505;28;20017;-74
2022/05/29 04:18:17;;;;;;;4.45;0.20;;;9.60;99.90;;;;;;5052274;28;20115;-74
2022/05/29 04:20:43;;;;;;;2.20;0.30;;;9.70;99.90;;;;;;5053761;28;20028;-73
2022/05/29 04:23:09;;;;;;;1.80;0.10;;;9.80;99.90;;;;;;5053903;28;20028;-74
2022/05/29 04:25:34;;;;;;;3.75;0.10;;;9.80;99.90;;;;;;5051973;28;20396;-74
2022/05/29 04:28:01;;;;;;;1.88;0.15;;;9.90;99.90;;;;;;5052115;28;20048;-74
2022/05/29 04:30:28;;;;;;;3.20;0.30;;;9.90;99.90;;;;;;5053362;28;20049;-74
2022/05/29 04:32:59;;;;;;;4.00;0.43;;;10.00;99.90;;;;;;5051969;28;20491;-74
2022/05/29 04:35:26;;;;;;;2.75;0.00;;;10.00;99.90;;;;;;5053297;28;20100;-74
2022/05/29 04:37:52;;;;;;;2.88;0.32;;;10.20;99.90;;;;;;5051899;28;20406;-74
2022/05/29 04:40:18;;;;;;;2.50;0.03;;;10.30;99.90;;;;;;5052293;28;20112;-74
2022/05/29 04:42:43;;;;;;;1.60;0.10;;;10.40;99.90;;;;;;5053406;28;20087;-74
2022/05/29 04:45:10;;;;;;;2.90;0.52;;;10.60;99.90;;;;;;5053052;28;20017;-74
2022/05/29 04:47:36;;;;;;;4.47;0.68;;;10.70;99.90;;;;;;5053298;28;20029;-74
2022/05/29 04:50:02;;;;;;;3.95;0.10;;;10.80;99.90;;;;;;5051875;28;20033;-74
2022/05/29 04:52:29;;;;;;;4.75;0.08;;;10.90;99.90;;;;;;5051869;28;20365;-74
2022/05/29 04:54:55;;;;;;;1.92;0.00;;;11.00;99.90;;;;;;5052959;28;20027;-74
2022/05/29 04:57:20;;;;;;;4.68;0.00;;;11.00;99.90;;;;;;5052989;28;20401;-74
2022/05/29 04:59:46;;;;;;;2.92;0.13;;;11.00;99.90;;;;;;5052932;28;20086;-74
2022/05/29 05:02:12;;;;;;;1.98;0.00;;;11.10;99.90;;;;;;5053547;28;20483;-74
2022/05/29 05:04:37;;;;;;;5.95;0.95;;;11.00;99.90;;;;;;5053348;28;20364;-74
2022/05/29 05:07:03;;;;;;;1.85;0.10;;;11.00;99.90;;;;;;5053167;28;20416;-74
2022/05/29 05:09:30;;;;;;;3.08;0.13;;;11.00;99.90;;;;;;5053054;28;20028;-73
2022/05/29 05:11:56;;;;;;;6.95;0.17;;;11.00;99.90;;;;;;5053137;28;20018;-74
2022/05/29 05:14:23;;;;;;;5.20;0.45;;;11.00;99.90;;;;;;5053012;28;20395;-74
2022/05/29 05:16:50;;;;;;;4.80;0.20;;;11.00;99.90;;;;;;5051592;28;20021;-74
2022/05/29 05:19:16;;;;;;;3.05;0.10;;;10.90;99.90;;;;;;5051658;28;20028;-74
2022/05/29 05:21:43;;;;;;;3.13;0.00;;;10.90;99.90;;;;;;5053126;28;20029;-74
2022/05/29 05:24:09;;;;;;;3.88;0.25;;;10.80;99.90;;;;;;5052878;28;20064;-74
2022/05/29 05:26:35;;;;;;;4.75;0.38;;;10.80;99.90;;;;;;5053050;28;20048;-74
2022/05/29 05:29:01;;;;;;;8.77;0.35;;;10.80;99.90;;;;;;5053020;28;20025;-74
2022/05/29 05:31:27;;;;;;;4.57;0.20;;;10.90;99.90;;;;;;5052633;28;20036;-74
2022/05/29 05:33:52;;;;;;;5.57;0.60;;;10.90;99.90;;;;;;5051488;28;20040;-74
2022/05/29 05:36:19;;;;;;;7.20;0.40;;;11.00;99.90;;;;;;5052751;28;20092;-74
2022/05/29 05:38:45;;;;;;;4.50;1.23;;;11.00;99.90;;;;;;5052604;28;20048;-74
2022/05/29 05:41:12;;;;;;;4.22;0.47;;;11.10;99.90;;;;;;5051332;28;20031;-74
2022/05/29 05:43:39;;;;;;;6.55;0.75;;;11.10;99.90;;;;;;5052315;28;20052;-74
2022/05/29 05:46:12;;;;;;;2.22;0.20;;;11.20;99.90;;;;;;5054517;28;20017;-74
2022/05/29 05:48:40;;;;;;;4.18;0.88;;;11.30;99.90;;;;;;5054845;28;20025;-74
2022/05/29 05:51:06;;;;;;;1.63;0.05;;;11.40;99.90;;;;;;5056119;28;20027;-74
2022/05/29 05:53:33;;;;;;;3.10;0.38;;;11.50;99.90;;;;;;5056010;28;20029;-74
2022/05/29 05:55:58;;;;;;;4.82;0.17;;;11.60;99.90;;;;;;5056091;28;20021;-74
2022/05/29 05:58:24;;;;;;;6.57;0.35;;;11.80;99.90;;;;;;5056055;28;20029;-74
2022/05/29 06:00:50;;;;;;;4.82;0.28;;;12.00;99.90;;;;;;5067578;22;20057;-73
2022/05/29 06:03:17;;;;;;;7.18;0.52;;;12.20;99.90;;;;;;5035903;28;20049;-73
2022/05/29 06:05:42;;;;;;;3.38;0.10;;;12.40;99.90;;;;;;5017852;28;20073;-72
2022/05/29 06:08:08;;;;;;;4.10;0.20;;;12.50;99.90;;;;;;5016623;28;20037;-73
2022/05/29 06:10:35;;;;;;;4.13;0.47;;;12.70;99.90;;;;;;5016030;28;20480;-73
2022/05/29 06:13:05;;;;;;;6.47;0.00;;;12.80;99.90;;;;;;5016028;28;20076;-73
2022/05/29 06:15:32;;;;;;;6.35;0.47;;;12.90;99.90;;;;;;5014716;28;20496;-73
2022/05/29 06:17:58;;;;;;;3.22;0.10;;;12.80;99.90;;;;;;5015891;28;20026;-73
2022/05/29 06:20:24;;;;;;;5.18;0.20;;;12.80;99.90;;;;;;5015936;28;20040;-73
2022/05/29 06:22:51;;;;;;;8.05;0.10;;;12.80;99.90;;;;;;5015833;28;20057;-73
2022/05/29 06:25:16;;;;;;;2.85;0.08;;;12.70;99.90;;;;;;5015719;28;20030;-73
2022/05/29 06:27:45;;;;;;;3.90;0.43;;;12.80;99.90;;;;;;5014433;28;20092;-73
2022/05/29 06:30:14;;;;;;;5.13;0.10;;;13.00;99.90;;;;;;5015720;28;20105;-73
2022/05/29 06:32:40;;;;;;;2.17;0.00;;;13.10;99.90;;;;;;5015665;28;20029;-73
2022/05/29 06:35:09;;;;;;;6.40;0.30;;;13.20;99.90;;;;;;5014222;28;20014;-73
2022/05/29 06:37:39;;;;;;;2.22;0.05;;;13.10;99.90;;;;;;5015543;28;20423;-73
2022/05/29 06:40:06;;;;;;;2.92;0.13;;;13.00;99.90;;;;;;5015494;28;20034;-73
2022/05/29 06:42:32;;;;;;;3.63;0.63;;;12.80;99.90;;;;;;5015372;28;20029;-73
2022/05/29 06:44:59;;;;;;;0.75;0.00;;;12.60;99.90;;;;;;5015375;28;20022;-73
2022/05/29 06:47:25;;;;;;;12.30;1.15;;;12.50;99.90;;;;;;5015299;28;20092;-73
2022/05/29 06:49:51;;;;;;;2.47;0.00;;;12.50;99.90;;;;;;5014059;28;20490;-73
2022/05/29 06:52:17;;;;;;;3.20;0.40;;;12.60;99.90;;;;;;5015250;28;20060;-73
2022/05/29 06:54:43;;;;;;;1.08;0.10;;;12.80;99.90;;;;;;5015395;28;20542;-73
2022/05/29 06:57:12;;;;;;;3.20;0.00;;;13.00;99.90;;;;;;5012819;28;20018;-74
2022/05/29 07:07:53;;;;;;;2.25;0.00;;;13.50;99.90;;;;;;5015231;28;20068;-76
2022/05/29 07:10:21;;;;;;;2.55;0.00;;;13.80;99.90;;;;;;5014093;28;20018;-77
2022/05/29 07:12:48;;;;;;;1.02;0.20;;;13.80;99.90;;;;;;5013687;28;20025;-77
2022/05/29 07:15:16;;;;;;;3.75;0.00;;;13.90;99.90;;;;;;5015401;28;20022;-77
2022/05/29 07:17:41;;;;;;;0.85;0.00;;;14.10;99.90;;;;;;5015140;28;20022;-77
2022/05/29 07:20:08;;;;;;;1.45;0.03;;;14.10;99.90;;;;;;5015183;28;20388;-78
2022/05/29 07:22:34;;;;;;;3.28;0.28;;;14.10;99.90;;;;;;5015033;28;20420;-76
2022/05/29 07:25:01;;;;;;;5.35;0.17;;;14.20;99.90;;;;;;5014572;28;20018;-76
2022/05/29 07:27:27;;;;;;;2.72;0.00;;;14.70;99.90;;;;;;5014601;28;20101;-76
2022/05/29 07:29:53;;;;;;;0.93;0.00;;;14.60;99.90;;;;;;5014525;28;20590;-76
2022/05/29 07:32:20;;;;;;;3.03;0.00;;;14.70;99.90;;;;;;5014807;28;20018;-76
2022/05/29 07:34:46;;;;;;;0.57;0.00;;;14.80;99.90;;;;;;5014439;28;20030;-77
2022/05/29 07:37:15;;;;;;;5.13;0.70;;;15.10;99.90;;;;;;5014656;28;20022;-76
2022/05/29 07:39:43;;;;;;;4.85;0.00;;;15.20;99.90;;;;;;5013144;28;20112;-76
2022/05/29 07:44:54;;;;;;;2.92;0.28;;;15.50;99.90;;;;;;5015205;28;20133;-77
2022/05/29 07:47:20;;;;;;;1.00;0.00;;;15.30;99.90;;;;;;5013197;28;20026;-77
2022/05/29 07:49:47;;;;;;;1.02;0.00;;;15.00;99.90;;;;;;5014197;28;20030;-72
2022/05/29 07:52:12;;;;;;;1.80;0.20;;;14.80;99.90;;;;;;5014279;28;20533;-72
2022/05/29 07:54:38;;;;;;;1.25;0.08;;;14.80;99.90;;;;;;5014141;28;20049;-72
2022/05/29 07:57:04;;;;;;;3.88;0.00;;;15.00;99.90;;;;;;5013017;28;20045;-72
2022/05/29 07:59:30;;;;;;;3.17;0.00;;;15.20;99.90;;;;;;5012805;28;20049;-71
2022/05/29 08:01:56;;;;;;;3.15;0.00;;;15.50;99.90;;;;;;5013951;28;20061;-71
2022/05/29 08:04:22;;;;;;;3.60;0.32;;;15.70;99.90;;;;;;5014102;28;20036;-71
2022/05/29 08:06:47;;;;;;;7.38;0.20;;;15.60;99.90;;;;;;5013749;28;20100;-71
2022/05/29 08:09:13;;;;;;;2.70;0.30;;;15.40;99.90;;;;;;5013829;28;20033;-71
2022/05/29 08:11:39;;;;;;;5.13;0.30;;;15.20;99.90;;;;;;5013844;28;20477;-71
2022/05/29 08:14:04;;;;;;;7.70;0.00;;;14.80;99.90;;;;;;5014067;28;20160;-71
2022/05/29 08:16:30;;;;;;;5.53;0.30;;;14.40;99.90;;;;;;5014078;28;20026;-72
2022/05/29 08:18:56;;;;;;;1.52;0.25;;;14.30;99.90;;;;;;5012486;28;20392;-72
2022/05/29 08:21:21;;;;;;;6.20;0.00;;;14.20;99.90;;;;;;5012467;28;20025;-71
2022/05/29 08:32:00;;;;;;;6.60;0.00;;;14.60;99.90;;;;;;5013649;28;20088;-72
2022/05/29 08:34:25;;;;;;;0.10;0.00;;;14.90;99.90;;;;;;5013878;28;20524;-72
2022/05/29 08:36:51;;;;;;;1.42;0.00;;;14.90;99.90;;;;;;5012249;28;20037;-72
2022/05/29 08:39:17;;;;;;;2.72;0.00;;;15.00;99.90;;;;;;5012299;28;20069;-72
2022/05/29 08:41:50;;;;;;;1.35;0.20;;;15.10;99.90;;;;;;5013374;28;20034;-72
2022/05/29 08:44:46;;;;;;;1.55;0.10;;;15.40;99.90;;;;;;5012452;28;20057;-74
2022/05/29 08:47:13;;;;;;;0.32;0.00;;;15.50;99.90;;;;;;5013473;28;20061;-74
2022/05/29 08:49:45;;;;;;;1.65;0.00;;;15.60;99.90;;;;;;5013308;28;20393;-74
2022/05/29 08:52:44;;;;;;;0.93;0.00;;;15.80;99.90;;;;;;5013896;28;20053;-74
2022/05/29 08:55:24;;;;;;;4.60;0.22;;;16.00;99.90;;;;;;5013337;28;20110;-74
2022/05/29 08:57:59;;;;;;;5.28;0.00;;;16.30;99.80;;;;;;5012205;28;20058;-74
2022/05/29 09:00:36;;;;;;;0.00;0.00;;;16.40;99.90;;;;;;5013527;28;20029;-75
2022/05/29 09:03:36;;;;;;;1.60;0.00;;;16.60;99.90;;;;;;5011917;28;20026;-74
2022/05/29 09:06:05;;;;;;;1.85;0.00;;;16.50;99.90;;;;;;4994005;28;20042;-74
2022/05/29 09:08:40;;;;;;;1.15;0.00;;;16.20;99.90;;;;;;4994120;28;20480;-74
2022/05/29 09:11:16;;;;;;;0.95;0.00;;;15.90;99.90;;;;;;4992060;28;20456;-74
2022/05/29 09:14:11;;;;;;;3.42;0.17;;;15.80;99.90;;;;;;4991695;28;20018;-74
2022/05/29 09:16:45;;;;;;;1.45;0.30;;;15.80;99.90;;;;;;4978440;28;20506;-74
2022/05/29 09:19:37;;;;;;;1.17;0.00;;;15.70;99.90;;;;;;4993988;28;20157;-74
2022/05/29 09:22:14;;;;;;;0.00;0.00;;;15.90;99.90;;;;;;4979727;28;20038;-74
2022/05/29 09:25:07;;;;;;;0.65;0.00;;;16.00;99.90;;;;;;4997882;28;20022;-74
2022/05/29 09:27:36;;;;;;;0.85;0.00;;;16.00;98.90;;;;;;5012282;28;20054;-74
2022/05/29 09:30:04;;;;;;;1.40;0.00;;;16.00;99.90;;;;;;4996025;28;20474;-74
2022/05/29 09:32:32;;;;;;;0.00;0.00;;;16.10;99.90;;;;;;4996060;28;20084;-74
2022/05/29 09:35:04;;;;;;;0.57;0.00;;;16.20;99.90;;;;;;4997115;28;20030;-74
2022/05/29 09:37:48;;;;;;;0.52;0.00;;;16.30;99.90;;;;;;4997501;28;20110;-74
2022/05/29 09:40:22;;;;;;;1.00;0.00;;;16.40;99.90;;;;;;4997056;28;20022;-74
2022/05/29 09:42:48;;;;;;;2.78;0.10;;;16.70;99.70;;;;;;4997426;28;20482;-74
2022/05/29 09:45:27;;;;;;;0.20;0.00;;;16.70;98.10;;;;;;4997051;28;20014;-74
2022/05/29 09:50:39;;;;;;;0.28;0.00;;;17.00;99.90;;;;;;4997015;28;20080;-74
2022/05/29 09:53:14;;;;;;;3.10;0.00;;;17.00;98.70;;;;;;4996836;28;20030;-74
2022/05/29 09:55:49;;;;;;;1.30;0.00;;;16.80;98.30;;;;;;4996948;28;20370;-74
2022/05/29 09:58:22;;;;;;;1.38;0.00;;;16.50;99.90;;;;;;4995595;28;20113;-74
2022/05/29 10:00:54;;;;;;;2.65;0.20;;;16.00;99.90;;;;;;4996602;28;20034;-74
2022/05/29 10:03:38;;;;;;;1.13;0.08;;;15.70;99.90;;;;;;4997252;28;20030;-74
2022/05/29 10:06:31;;;;;;;1.60;0.00;;;15.30;99.90;;;;;;4995380;28;20125;-74
2022/05/29 10:09:24;;;;;;;3.70;0.10;;;14.90;99.90;;;;;;4996764;28;20033;-74
2022/05/29 10:11:58;;;;;;;1.15;0.03;;;14.60;99.90;;;;;;4993115;28;20038;-74
2022/05/29 10:14:26;;;;;;;0.45;0.00;;;14.60;99.90;;;;;;4996987;28;20019;-74
2022/05/29 10:16:56;;;;;;;3.05;0.00;;;14.50;99.90;;;;;;4996708;28;20022;-74
2022/05/29 10:19:35;;;;;;;2.63;0.00;;;14.30;99.90;;;;;;4995412;28;20065;-74
2022/05/29 10:22:08;;;;;;;1.80;0.20;;;14.30;99.90;;;;;;4997112;28;20030;-74
2022/05/29 10:24:37;;;;;;;1.55;0.40;;;14.50;99.90;;;;;;4996583;28;20033;-74
2022/05/29 10:27:26;;;;;;;3.20;0.20;;;14.60;99.90;;;;;;4996221;28;20061;-74
2022/05/29 10:30:19;;;;;;;1.73;0.00;;;14.70;99.90;;;;;;4995627;28;20046;-74
2022/05/29 10:32:45;;;;;;;0.32;0.00;;;14.60;99.90;;;;;;4980583;28;20035;-74
2022/05/29 10:35:26;;;;;;;4.22;0.52;;;14.40;99.90;;;;;;4996004;28;20101;-74
2022/05/29 10:37:53;;;;;;;3.22;0.45;;;14.30;99.90;;;;;;4996002;28;20029;-74
2022/05/29 10:40:24;;;;;;;6.15;0.47;;;14.10;99.90;;;;;;4996016;28;20023;-74
2022/05/29 10:42:53;;;;;;;0.68;0.00;;;14.00;99.90;;;;;;4995958;28;20084;-74
2022/05/29 10:45:22;;;;;;;4.07;0.35;;;13.90;99.90;;;;;;4994512;28;20504;-74
2022/05/29 10:48:02;;;;;;;3.88;0.00;;;13.70;99.90;;;;;;4994563;28;20034;-74
2022/05/29 10:50:59;;;;;;;2.90;0.00;;;13.80;99.90;;;;;;4996410;28;20022;-74
2022/05/29 10:53:24;;;;;;;2.67;0.17;;;13.80;99.90;;;;;;4994050;28;20038;-74
2022/05/29 10:56:25;;;;;;;2.65;0.30;;;14.10;99.90;;;;;;4995933;28;20105;-74
2022/05/29 10:59:04;;;;;;;1.73;0.40;;;14.30;99.90;;;;;;4996283;28;20037;-74
2022/05/29 11:04:48;;;;;;;3.53;0.10;;;14.70;99.90;;;;;;4996028;28;20128;-74
2022/05/29 11:07:19;;;;;;;1.75;0.45;;;14.70;99.90;;;;;;4995492;28;20033;-74
2022/05/29 11:09:58;;;;;;;3.42;0.35;;;14.70;99.90;;;;;;4995316;28;20026;-74
2022/05/29 11:12:54;;;;;;;1.80;0.10;;;14.40;99.90;;;;;;4995349;28;20026;-74
2022/05/29 11:15:48;;;;;;;1.25;0.00;;;14.20;99.90;;;;;;4994084;28;20367;-74
2022/05/29 11:18:42;;;;;;;3.15;0.13;;;14.10;99.90;;;;;;4993979;28;20057;-74
2022/05/29 11:21:16;;;;;;;2.30;0.00;;;14.10;99.90;;;;;;4995278;28;20121;-74
2022/05/29 11:23:45;;;;;;;1.00;0.00;;;14.00;99.90;;;;;;4995571;28;20462;-74
2022/05/29 11:26:26;;;;;;;0.57;0.00;;;14.00;99.90;;;;;;4995654;28;20109;-74
2022/05/29 11:28:51;;;;;;;3.20;0.35;;;14.00;99.90;;;;;;4995002;28;20018;-74
2022/05/29 11:31:26;;;;;;;1.13;0.10;;;14.10;99.90;;;;;;4995522;28;20053;-74
2022/05/29 11:34:21;;;;;;;2.58;0.00;;;14.20;99.90;;;;;;4995439;28;20018;-74
2022/05/29 11:37:01;;;;;;;0.75;0.10;;;14.40;99.90;;;;;;4995264;28;20038;-74
2022/05/29 11:39:40;;;;;;;1.92;0.00;;;14.80;99.90;;;;;;4995210;28;20053;-74
2022/05/29 11:42:25;;;;;;;1.23;0.10;;;15.10;99.90;;;;;;4994615;28;20027;-74
2022/05/29 11:45:12;;;;;;;1.85;0.00;;;15.40;99.90;;;;;;4994662;28;20033;-74
2022/05/29 11:51:08;;;;;;;7.03;0.22;;;15.70;98.50;;;;;;4995555;28;20089;-74
2022/05/29 11:53:46;;;;;;;3.90;0.25;;;15.90;99.90;;;;;;4993270;28;20034;-74
2022/05/29 11:56:28;;;;;;;0.13;0.00;;;16.10;99.90;;;;;;4995150;28;20014;-74
2022/05/29 11:59:10;;;;;;;1.65;0.35;;;16.20;99.90;;;;;;4994532;28;20557;-74
2022/05/29 12:01:42;;;;;;;1.10;0.32;;;16.30;99.90;;;;;;4994393;28;20030;-74
2022/05/29 12:04:38;;;;;;;2.90;0.35;;;16.20;96.40;;;;;;4993101;28;20441;-74
2022/05/29 12:07:10;;;;;;;2.55;0.10;;;16.30;98.60;;;;;;4994394;28;20026;-74
2022/05/29 12:10:14;;;;;;;1.77;0.10;;;16.30;99.10;;;;;;4992953;28;20037;-74
2022/05/29 12:12:44;;;;;;;7.53;0.25;;;16.30;98.20;;;;;;4992132;28;20034;-74
2022/05/29 12:15:17;;;;;;;1.20;0.10;;;16.30;93.90;;;;;;4994221;28;20023;-74
2022/05/29 12:18:00;;;;;;;2.38;0.00;;;16.50;96.20;;;;;;4994220;28;20026;-74
2022/05/29 12:20:52;;;;;;;1.55;0.00;;;16.80;96.10;;;;;;4993011;28;20433;-74
2022/05/29 12:23:23;;;;;;;2.45;0.00;;;17.10;95.40;;;;;;4992923;28;20033;-74
2022/05/29 12:26:03;;;;;;;0.28;0.00;;;17.20;93.00;;;;;;4994008;28;20030;-74
2022/05/29 12:28:37;;;;;;;0.45;0.00;;;17.40;93.40;;;;;;4994108;28;20480;-74
2022/05/29 12:31:06;;;;;;;0.13;0.10;;;17.50;93.80;;;;;;4994618;28;20489;-74
2022/05/29 12:33:32;;;;;;;1.48;0.20;;;17.90;90.00;;;;;;4992755;28;20177;-74
2022/05/29 12:36:07;;;;;;;1.00;0.17;;;18.20;87.80;;;;;;4994530;28;20454;-74
2022/05/29 12:38:51;;;;;;;1.75;0.00;;;18.50;87.50;;;;;;4992871;28;20030;-74
2022/05/29 12:41:40;;;;;;;0.52;0.10;;;18.40;85.00;;;;;;4993962;28;20026;-74
2022/05/29 12:44:30;;;;;;;1.85;0.00;;;17.90;82.30;;;;;;4994154;28;20026;-74
2022/05/29 12:47:05;;;;;;;5.22;0.43;;;17.20;85.80;;;;;;4994166;28;20409;-74
2022/05/29 12:49:51;;;;;;;1.27;0.00;;;16.70;90.60;;;;;;4992517;28;20022;-74
2022/05/29 12:52:22;;;;;;;1.08;0.00;;;16.10;90.90;;;;;;4993782;28;20045;-74
2022/05/29 12:55:20;;;;;;;2.75;0.00;;;15.80;93.30;;;;;;4997305;28;20026;-74
2022/05/29 12:58:12;;;;;;;4.57;0.40;;;15.70;95.70;;;;;;4990055;28;20038;-73
2022/05/29 13:00:47;;;;;;;0.95;0.00;;;15.60;95.20;;;;;;4997923;28;20038;-77
2022/05/29 13:03:39;;;;;;;1.08;0.00;;;15.40;96.10;;;;;;4997985;28;20026;-77
2022/05/29 13:06:27;;;;;;;1.60;0.00;;;15.50;98.10;;;;;;4978786;28;20046;-77
2022/05/29 13:09:11;;;;;;;1.88;0.20;;;15.50;97.00;;;;;;4997525;28;20034;-77
2022/05/29 13:11:40;;;;;;;2.95;0.35;;;15.70;99.50;;;;;;4997578;28;20022;-77
2022/05/29 13:14:08;;;;;;;2.65;0.30;;;16.00;99.90;;;;;;4997902;28;20069;-77
2022/05/29 13:16:40;;;;;;;1.80;0.00;;;16.30;99.90;;;;;;4996295;28;20023;-76
2022/05/29 13:19:14;;;;;;;3.28;0.20;;;17.00;93.10;;;;;;4997474;28;20265;-77
2022/05/29 13:22:02;;;;;;;2.22;0.52;;;16.70;92.30;;;;;;4997389;28;20030;-77
2022/05/29 13:24:37;;;;;;;1.95;0.03;;;17.10;94.70;;;;;;4997416;28;20058;-77
2022/05/29 13:27:09;;;;;;;1.52;0.00;;;17.80;95.20;;;;;;4997877;28;20026;-77
2022/05/29 13:29:43;;;;;;;0.35;0.00;;;18.00;87.50;;;;;;4995960;28;20037;-77
2022/05/29 13:32:15;;;;;;;0.60;0.00;;;18.10;87.10;;;;;;4997294;28;20022;-77
2022/05/29 13:34:52;;;;;;;1.60;0.10;;;18.20;83.50;;;;;;4997113;28;20031;-77
2022/05/29 13:37:49;;;;;;;2.90;0.00;;;18.00;80.40;;;;;;4995849;28;20026;-77
2022/05/29 13:40:21;;;;;;;1.00;0.00;;;18.20;81.10;;;;;;4997458;28;20596;-77
2022/05/29 13:42:51;;;;;;;1.73;0.00;;;18.30;78.30;;;;;;4997608;28;20030;-77
2022/05/29 13:45:19;;;;;;;1.70;0.00;;;18.80;82.30;;;;;;4997366;28;20027;-77
2022/05/29 13:48:17;;;;;;;1.25;0.00;;;19.00;75.10;;;;;;4997355;28;20030;-77
2022/05/29 13:50:51;;;;;;;;;;;18.90;74.20;;;;;;4997227;28;20026;-77
2022/05/29 13:53:42;;;;;;;0.45;0.13;;;19.00;76.00;;;;;;4997415;28;19910;-77
2022/05/29 13:56:18;;;;;;;0.88;0.10;;;18.80;76.00;;;;;;4995517;28;20031;-77